sensor_id;sensor_type;location;lat;lon;timestamp;P1;durP1;ratioP1;P2;durP2;ratioP2
24559;SDS011;12727;49.934;8.656;2023-03-23T00:00:07;2.63;;;0.90;;
24559;SDS011;12727;49.934;8.656;2023-03-23T00:02:36;2.58;;;0.80;;
24559;SDS011;12727;49.934;8.656;2023-03-23T00:05:03;1.73;;;0.80;;
24559;SDS011;12727;49.934;8.656;2023-03-23T00:07:32;1.75;;;0.90;;
24559;SDS011;12727;49.934;8.656;2023-03-23T00:09:59;3.33;;;1.00;;
24559;SDS011;12727;49.934;8.656;2023-03-23T00:12:28;1.52;;;0.80;;
24559;SDS011;12727;49.934;8.656;2023-03-23T00:15:02;6.00;;;1.10;;
24559;SDS011;12727;49.934;8.656;2023-03-23T00:17:29;5.50;;;1.05;;
24559;SDS011;12727;49.934;8.656;2023-03-23T00:19:57;3.05;;;1.10;;
24559;SDS011;12727;49.934;8.656;2023-03-23T00:22:26;2.80;;;1.02;;
24559;SDS011;12727;49.934;8.656;2023-03-23T00:24:53;1.10;;;0.90;;
24559;SDS011;12727;49.934;8.656;2023-03-23T00:27:20;3.78;;;1.02;;
24559;SDS011;12727;49.934;8.656;2023-03-23T00:29:47;1.95;;;0.85;;
24559;SDS011;12727;49.934;8.656;2023-03-23T00:32:17;1.60;;;0.70;;
24559;SDS011;12727;49.934;8.656;2023-03-23T00:34:45;4.15;;;1.10;;
24559;SDS011;12727;49.934;8.656;2023-03-23T00:37:13;1.52;;;1.00;;
24559;SDS011;12727;49.934;8.656;2023-03-23T00:39:41;1.80;;;0.80;;
24559;SDS011;12727;49.934;8.656;2023-03-23T00:42:10;1.63;;;1.08;;
24559;SDS011;12727;49.934;8.656;2023-03-23T00:44:37;2.22;;;1.05;;
24559;SDS011;12727;49.934;8.656;2023-03-23T00:47:04;4.20;;;1.23;;
24559;SDS011;12727;49.934;8.656;2023-03-23T00:49:31;1.98;;;1.23;;
24559;SDS011;12727;49.934;8.656;2023-03-23T00:51:59;5.25;;;1.20;;
24559;SDS011;12727;49.934;8.656;2023-03-23T00:54:25;1.65;;;0.93;;
24559;SDS011;12727;49.934;8.656;2023-03-23T00:56:51;3.40;;;1.20;;
24559;SDS011;12727;49.934;8.656;2023-03-23T00:59:18;1.77;;;1.13;;
24559;SDS011;12727;49.934;8.656;2023-03-23T01:01:44;3.08;;;1.10;;
24559;SDS011;12727;49.934;8.656;2023-03-23T01:04:09;2.15;;;1.20;;
24559;SDS011;12727;49.934;8.656;2023-03-23T01:06:37;2.80;;;1.15;;
24559;SDS011;12727;49.934;8.656;2023-03-23T01:09:05;3.45;;;1.08;;
24559;SDS011;12727;49.934;8.656;2023-03-23T01:11:31;2.33;;;1.33;;
24559;SDS011;12727;49.934;8.656;2023-03-23T01:13:58;1.50;;;0.75;;
24559;SDS011;12727;49.934;8.656;2023-03-23T01:16:24;2.15;;;1.10;;
24559;SDS011;12727;49.934;8.656;2023-03-23T01:18:50;2.42;;;1.17;;
24559;SDS011;12727;49.934;8.656;2023-03-23T01:21:16;2.20;;;1.02;;
24559;SDS011;12727;49.934;8.656;2023-03-23T01:23:43;1.60;;;1.05;;
24559;SDS011;12727;49.934;8.656;2023-03-23T01:26:10;1.73;;;1.05;;
24559;SDS011;12727;49.934;8.656;2023-03-23T01:28:40;1.77;;;0.90;;
24559;SDS011;12727;49.934;8.656;2023-03-23T01:31:09;2.22;;;1.00;;
24559;SDS011;12727;49.934;8.656;2023-03-23T01:33:37;2.97;;;0.90;;
24559;SDS011;12727;49.934;8.656;2023-03-23T01:36:04;3.17;;;0.93;;
24559;SDS011;12727;49.934;8.656;2023-03-23T01:38:31;1.30;;;0.90;;
24559;SDS011;12727;49.934;8.656;2023-03-23T01:40:58;3.60;;;1.10;;
24559;SDS011;12727;49.934;8.656;2023-03-23T01:43:24;1.70;;;0.90;;
24559;SDS011;12727;49.934;8.656;2023-03-23T01:45:49;1.42;;;0.90;;
24559;SDS011;12727;49.934;8.656;2023-03-23T01:48:17;2.22;;;1.00;;
24559;SDS011;12727;49.934;8.656;2023-03-23T01:50:57;2.83;;;1.30;;
24559;SDS011;12727;49.934;8.656;2023-03-23T01:53:31;2.17;;;1.15;;
24559;SDS011;12727;49.934;8.656;2023-03-23T01:56:10;1.20;;;0.80;;
24559;SDS011;12727;49.934;8.656;2023-03-23T01:58:38;1.65;;;1.00;;
24559;SDS011;12727;49.934;8.656;2023-03-23T02:01:06;3.00;;;1.20;;
24559;SDS011;12727;49.934;8.656;2023-03-23T02:03:38;1.90;;;0.98;;
24559;SDS011;12727;49.934;8.656;2023-03-23T02:06:06;2.85;;;1.20;;
24559;SDS011;12727;49.934;8.656;2023-03-23T02:08:32;1.85;;;0.93;;
24559;SDS011;12727;49.934;8.656;2023-03-23T02:10:59;2.17;;;1.30;;
24559;SDS011;12727;49.934;8.656;2023-03-23T02:13:25;1.88;;;1.10;;
24559;SDS011;12727;49.934;8.656;2023-03-23T02:15:58;3.58;;;1.00;;
24559;SDS011;12727;49.934;8.656;2023-03-23T02:21:30;2.83;;;1.27;;
24559;SDS011;12727;49.934;8.656;2023-03-23T02:35:40;3.15;;;1.10;;
24559;SDS011;12727;49.934;8.656;2023-03-23T02:38:15;4.88;;;1.08;;
24559;SDS011;12727;49.934;8.656;2023-03-23T02:40:45;2.28;;;1.05;;
24559;SDS011;12727;49.934;8.656;2023-03-23T02:43:14;2.47;;;1.08;;
24559;SDS011;12727;49.934;8.656;2023-03-23T02:45:45;2.97;;;1.27;;
24559;SDS011;12727;49.934;8.656;2023-03-23T02:48:12;3.65;;;1.70;;
24559;SDS011;12727;49.934;8.656;2023-03-23T02:50:40;3.63;;;1.15;;
24559;SDS011;12727;49.934;8.656;2023-03-23T02:53:12;1.80;;;1.10;;
24559;SDS011;12727;49.934;8.656;2023-03-23T02:55:41;1.50;;;1.00;;
24559;SDS011;12727;49.934;8.656;2023-03-23T02:58:08;3.30;;;1.40;;
24559;SDS011;12727;49.934;8.656;2023-03-23T03:00:35;4.13;;;1.35;;
24559;SDS011;12727;49.934;8.656;2023-03-23T03:03:01;1.77;;;1.20;;
24559;SDS011;12727;49.934;8.656;2023-03-23T03:05:32;2.50;;;1.20;;
24559;SDS011;12727;49.934;8.656;2023-03-23T03:08:12;3.42;;;1.20;;
24559;SDS011;12727;49.934;8.656;2023-03-23T03:10:53;3.53;;;1.65;;
24559;SDS011;12727;49.934;8.656;2023-03-23T03:15:58;1.52;;;1.02;;
24559;SDS011;12727;49.934;8.656;2023-03-23T03:18:30;1.90;;;1.25;;
24559;SDS011;12727;49.934;8.656;2023-03-23T03:21:04;2.40;;;1.15;;
24559;SDS011;12727;49.934;8.656;2023-03-23T03:23:35;2.33;;;1.30;;
24559;SDS011;12727;49.934;8.656;2023-03-23T03:26:02;4.50;;;1.15;;
24559;SDS011;12727;49.934;8.656;2023-03-23T03:28:30;2.53;;;1.13;;
24559;SDS011;12727;49.934;8.656;2023-03-23T03:30:57;3.83;;;1.23;;
24559;SDS011;12727;49.934;8.656;2023-03-23T03:33:26;2.20;;;0.93;;
24559;SDS011;12727;49.934;8.656;2023-03-23T03:35:56;1.98;;;1.02;;
24559;SDS011;12727;49.934;8.656;2023-03-23T03:38:25;2.13;;;0.95;;
24559;SDS011;12727;49.934;8.656;2023-03-23T03:40:51;1.42;;;0.95;;
24559;SDS011;12727;49.934;8.656;2023-03-23T03:43:18;2.83;;;1.30;;
24559;SDS011;12727;49.934;8.656;2023-03-23T03:45:43;1.48;;;0.90;;
24559;SDS011;12727;49.934;8.656;2023-03-23T03:48:09;2.13;;;1.08;;
24559;SDS011;12727;49.934;8.656;2023-03-23T03:50:36;1.95;;;0.98;;
24559;SDS011;12727;49.934;8.656;2023-03-23T03:53:02;1.77;;;1.10;;
24559;SDS011;12727;49.934;8.656;2023-03-23T03:55:28;4.78;;;1.25;;
24559;SDS011;12727;49.934;8.656;2023-03-23T03:57:54;1.33;;;0.90;;
24559;SDS011;12727;49.934;8.656;2023-03-23T04:00:20;1.95;;;0.90;;
24559;SDS011;12727;49.934;8.656;2023-03-23T04:02:47;3.50;;;1.10;;
24559;SDS011;12727;49.934;8.656;2023-03-23T04:05:16;1.92;;;1.00;;
24559;SDS011;12727;49.934;8.656;2023-03-23T04:07:43;2.70;;;1.10;;
24559;SDS011;12727;49.934;8.656;2023-03-23T04:10:10;3.75;;;0.93;;
24559;SDS011;12727;49.934;8.656;2023-03-23T04:12:38;3.30;;;1.38;;
24559;SDS011;12727;49.934;8.656;2023-03-23T04:15:05;1.33;;;0.82;;
24559;SDS011;12727;49.934;8.656;2023-03-23T04:17:32;1.90;;;1.00;;
24559;SDS011;12727;49.934;8.656;2023-03-23T04:19:58;2.75;;;1.30;;
24559;SDS011;12727;49.934;8.656;2023-03-23T04:22:25;2.15;;;0.95;;
24559;SDS011;12727;49.934;8.656;2023-03-23T04:24:55;1.52;;;1.10;;
24559;SDS011;12727;49.934;8.656;2023-03-23T04:27:23;1.83;;;0.90;;
24559;SDS011;12727;49.934;8.656;2023-03-23T04:29:49;2.00;;;1.20;;
24559;SDS011;12727;49.934;8.656;2023-03-23T04:32:15;1.95;;;0.90;;
24559;SDS011;12727;49.934;8.656;2023-03-23T04:34:43;2.63;;;1.10;;
24559;SDS011;12727;49.934;8.656;2023-03-23T04:37:09;2.05;;;1.17;;
24559;SDS011;12727;49.934;8.656;2023-03-23T04:39:35;2.45;;;1.30;;
24559;SDS011;12727;49.934;8.656;2023-03-23T04:42:01;2.40;;;1.10;;
24559;SDS011;12727;49.934;8.656;2023-03-23T04:44:27;2.17;;;1.30;;
24559;SDS011;12727;49.934;8.656;2023-03-23T04:46:53;2.05;;;1.17;;
24559;SDS011;12727;49.934;8.656;2023-03-23T04:49:19;3.05;;;0.93;;
24559;SDS011;12727;49.934;8.656;2023-03-23T04:51:47;2.55;;;1.27;;
24559;SDS011;12727;49.934;8.656;2023-03-23T04:54:15;1.77;;;1.20;;
24559;SDS011;12727;49.934;8.656;2023-03-23T04:56:41;2.00;;;1.10;;
24559;SDS011;12727;49.934;8.656;2023-03-23T04:59:07;2.40;;;1.10;;
24559;SDS011;12727;49.934;8.656;2023-03-23T05:01:33;3.00;;;1.30;;
24559;SDS011;12727;49.934;8.656;2023-03-23T05:04:02;1.67;;;1.10;;
24559;SDS011;12727;49.934;8.656;2023-03-23T05:06:28;3.60;;;1.52;;
24559;SDS011;12727;49.934;8.656;2023-03-23T05:08:53;2.33;;;1.05;;
24559;SDS011;12727;49.934;8.656;2023-03-23T05:11:19;2.33;;;1.10;;
24559;SDS011;12727;49.934;8.656;2023-03-23T05:13:44;1.55;;;1.10;;
24559;SDS011;12727;49.934;8.656;2023-03-23T05:16:10;3.42;;;1.27;;
24559;SDS011;12727;49.934;8.656;2023-03-23T05:18:35;2.70;;;1.02;;
24559;SDS011;12727;49.934;8.656;2023-03-23T05:21:02;2.33;;;1.13;;
24559;SDS011;12727;49.934;8.656;2023-03-23T05:23:28;2.15;;;1.05;;
24559;SDS011;12727;49.934;8.656;2023-03-23T05:25:56;1.73;;;0.95;;
24559;SDS011;12727;49.934;8.656;2023-03-23T05:28:25;1.70;;;0.98;;
24559;SDS011;12727;49.934;8.656;2023-03-23T05:30:51;2.42;;;0.95;;
24559;SDS011;12727;49.934;8.656;2023-03-23T05:33:18;1.58;;;0.80;;
24559;SDS011;12727;49.934;8.656;2023-03-23T05:35:45;4.78;;;1.20;;
24559;SDS011;12727;49.934;8.656;2023-03-23T05:38:12;2.05;;;0.93;;
24559;SDS011;12727;49.934;8.656;2023-03-23T05:40:39;2.20;;;1.10;;
24559;SDS011;12727;49.934;8.656;2023-03-23T05:43:06;3.25;;;1.10;;
24559;SDS011;12727;49.934;8.656;2023-03-23T05:45:32;1.50;;;0.90;;
24559;SDS011;12727;49.934;8.656;2023-03-23T05:47:58;2.35;;;1.02;;
24559;SDS011;12727;49.934;8.656;2023-03-23T05:50:24;1.42;;;1.00;;
24559;SDS011;12727;49.934;8.656;2023-03-23T05:52:50;1.63;;;1.00;;
24559;SDS011;12727;49.934;8.656;2023-03-23T05:55:16;2.42;;;1.27;;
24559;SDS011;12727;49.934;8.656;2023-03-23T05:57:41;2.53;;;1.00;;
24559;SDS011;12727;49.934;8.656;2023-03-23T06:00:07;1.83;;;1.13;;
24559;SDS011;12727;49.934;8.656;2023-03-23T06:02:36;3.13;;;1.02;;
24559;SDS011;12727;49.934;8.656;2023-03-23T06:05:02;1.90;;;1.20;;
24559;SDS011;12727;49.934;8.656;2023-03-23T06:07:27;1.70;;;0.93;;
24559;SDS011;12727;49.934;8.656;2023-03-23T06:09:53;2.65;;;0.77;;
24559;SDS011;12727;49.934;8.656;2023-03-23T06:12:19;2.80;;;1.30;;
24559;SDS011;12727;49.934;8.656;2023-03-23T06:14:45;2.63;;;0.98;;
24559;SDS011;12727;49.934;8.656;2023-03-23T06:17:11;1.83;;;1.30;;
24559;SDS011;12727;49.934;8.656;2023-03-23T06:19:38;3.35;;;1.60;;
24559;SDS011;12727;49.934;8.656;2023-03-23T06:22:03;3.72;;;1.50;;
24559;SDS011;12727;49.934;8.656;2023-03-23T06:24:30;3.67;;;1.50;;
24559;SDS011;12727;49.934;8.656;2023-03-23T06:26:57;4.25;;;1.83;;
24559;SDS011;12727;49.934;8.656;2023-03-23T06:29:23;2.25;;;1.65;;
24559;SDS011;12727;49.934;8.656;2023-03-23T06:31:50;2.63;;;1.10;;
24559;SDS011;12727;49.934;8.656;2023-03-23T06:34:19;2.55;;;1.20;;
24559;SDS011;12727;49.934;8.656;2023-03-23T06:36:45;2.63;;;1.83;;
24559;SDS011;12727;49.934;8.656;2023-03-23T06:39:11;2.97;;;1.50;;
24559;SDS011;12727;49.934;8.656;2023-03-23T06:41:38;5.03;;;2.00;;
24559;SDS011;12727;49.934;8.656;2023-03-23T06:44:05;3.63;;;1.65;;
24559;SDS011;12727;49.934;8.656;2023-03-23T06:46:31;3.85;;;1.80;;
24559;SDS011;12727;49.934;8.656;2023-03-23T06:48:57;3.78;;;1.60;;
24559;SDS011;12727;49.934;8.656;2023-03-23T06:51:23;3.47;;;1.63;;
24559;SDS011;12727;49.934;8.656;2023-03-23T06:53:49;2.83;;;1.52;;
24559;SDS011;12727;49.934;8.656;2023-03-23T06:56:15;1.80;;;1.02;;
24559;SDS011;12727;49.934;8.656;2023-03-23T06:58:41;1.40;;;0.85;;
24559;SDS011;12727;49.934;8.656;2023-03-23T07:01:06;1.88;;;1.02;;
24559;SDS011;12727;49.934;8.656;2023-03-23T07:03:33;1.70;;;1.00;;
24559;SDS011;12727;49.934;8.656;2023-03-23T07:05:59;2.30;;;1.02;;
24559;SDS011;12727;49.934;8.656;2023-03-23T07:08:25;2.40;;;1.13;;
24559;SDS011;12727;49.934;8.656;2023-03-23T07:10:51;2.78;;;0.80;;
24559;SDS011;12727;49.934;8.656;2023-03-23T07:13:18;3.38;;;1.20;;
24559;SDS011;12727;49.934;8.656;2023-03-23T07:15:44;2.75;;;1.13;;
24559;SDS011;12727;49.934;8.656;2023-03-23T07:18:10;2.92;;;1.20;;
24559;SDS011;12727;49.934;8.656;2023-03-23T07:20:36;2.10;;;1.30;;
24559;SDS011;12727;49.934;8.656;2023-03-23T07:23:02;3.67;;;1.10;;
24559;SDS011;12727;49.934;8.656;2023-03-23T07:25:30;1.88;;;1.10;;
24559;SDS011;12727;49.934;8.656;2023-03-23T07:27:58;3.22;;;1.30;;
24559;SDS011;12727;49.934;8.656;2023-03-23T07:30:25;2.97;;;1.27;;
24559;SDS011;12727;49.934;8.656;2023-03-23T07:32:51;3.80;;;1.70;;
24559;SDS011;12727;49.934;8.656;2023-03-23T07:35:16;4.00;;;1.65;;
24559;SDS011;12727;49.934;8.656;2023-03-23T07:37:42;3.22;;;1.40;;
24559;SDS011;12727;49.934;8.656;2023-03-23T07:40:08;4.00;;;1.92;;
24559;SDS011;12727;49.934;8.656;2023-03-23T07:42:40;3.85;;;1.77;;
24559;SDS011;12727;49.934;8.656;2023-03-23T07:45:07;2.42;;;1.35;;
24559;SDS011;12727;49.934;8.656;2023-03-23T07:47:32;2.00;;;1.30;;
24559;SDS011;12727;49.934;8.656;2023-03-23T07:49:58;4.88;;;2.13;;
24559;SDS011;12727;49.934;8.656;2023-03-23T07:52:24;2.95;;;1.45;;
24559;SDS011;12727;49.934;8.656;2023-03-23T07:54:49;2.45;;;1.55;;
24559;SDS011;12727;49.934;8.656;2023-03-23T07:57:15;3.17;;;1.60;;
24559;SDS011;12727;49.934;8.656;2023-03-23T07:59:40;3.17;;;1.40;;
24559;SDS011;12727;49.934;8.656;2023-03-23T08:02:07;2.67;;;1.30;;
24559;SDS011;12727;49.934;8.656;2023-03-23T08:04:34;4.10;;;1.30;;
24559;SDS011;12727;49.934;8.656;2023-03-23T08:07:02;2.10;;;1.10;;
24559;SDS011;12727;49.934;8.656;2023-03-23T08:09:29;3.40;;;1.40;;
24559;SDS011;12727;49.934;8.656;2023-03-23T08:11:55;2.63;;;1.40;;
24559;SDS011;12727;49.934;8.656;2023-03-23T08:14:21;5.25;;;1.15;;
24559;SDS011;12727;49.934;8.656;2023-03-23T08:16:47;2.15;;;1.40;;
24559;SDS011;12727;49.934;8.656;2023-03-23T08:19:13;2.10;;;1.35;;
24559;SDS011;12727;49.934;8.656;2023-03-23T08:21:39;1.70;;;1.40;;
24559;SDS011;12727;49.934;8.656;2023-03-23T08:24:05;2.20;;;1.30;;
24559;SDS011;12727;49.934;8.656;2023-03-23T08:26:31;3.55;;;1.35;;
24559;SDS011;12727;49.934;8.656;2023-03-23T08:28:57;2.35;;;1.38;;
24559;SDS011;12727;49.934;8.656;2023-03-23T08:31:22;1.90;;;1.02;;
24559;SDS011;12727;49.934;8.656;2023-03-23T08:33:48;2.08;;;1.38;;
24559;SDS011;12727;49.934;8.656;2023-03-23T08:36:14;4.65;;;1.17;;
24559;SDS011;12727;49.934;8.656;2023-03-23T08:38:40;2.20;;;1.27;;
24559;SDS011;12727;49.934;8.656;2023-03-23T08:41:06;1.60;;;1.17;;
24559;SDS011;12727;49.934;8.656;2023-03-23T08:43:32;2.50;;;1.25;;
24559;SDS011;12727;49.934;8.656;2023-03-23T08:45:59;1.67;;;0.85;;
24559;SDS011;12727;49.934;8.656;2023-03-23T08:48:26;1.02;;;0.88;;
24559;SDS011;12727;49.934;8.656;2023-03-23T08:50:52;1.42;;;0.80;;
24559;SDS011;12727;49.934;8.656;2023-03-23T08:53:18;2.25;;;0.88;;
24559;SDS011;12727;49.934;8.656;2023-03-23T08:55:46;2.28;;;1.33;;
24559;SDS011;12727;49.934;8.656;2023-03-23T08:58:12;2.00;;;1.00;;
24559;SDS011;12727;49.934;8.656;2023-03-23T09:00:37;2.20;;;1.02;;
24559;SDS011;12727;49.934;8.656;2023-03-23T09:03:04;1.70;;;1.08;;
24559;SDS011;12727;49.934;8.656;2023-03-23T09:05:29;1.95;;;1.02;;
24559;SDS011;12727;49.934;8.656;2023-03-23T09:07:56;1.10;;;0.75;;
24559;SDS011;12727;49.934;8.656;2023-03-23T09:10:26;1.42;;;1.05;;
24559;SDS011;12727;49.934;8.656;2023-03-23T09:12:54;3.22;;;1.15;;
24559;SDS011;12727;49.934;8.656;2023-03-23T09:15:20;2.95;;;1.13;;
24559;SDS011;12727;49.934;8.656;2023-03-23T09:17:47;1.38;;;0.90;;
24559;SDS011;12727;49.934;8.656;2023-03-23T09:20:15;2.35;;;0.98;;
24559;SDS011;12727;49.934;8.656;2023-03-23T09:22:46;3.03;;;1.10;;
24559;SDS011;12727;49.934;8.656;2023-03-23T09:25:15;1.95;;;0.80;;
24559;SDS011;12727;49.934;8.656;2023-03-23T09:27:44;1.88;;;1.10;;
24559;SDS011;12727;49.934;8.656;2023-03-23T09:30:12;2.33;;;1.05;;
24559;SDS011;12727;49.934;8.656;2023-03-23T09:32:39;2.75;;;1.15;;
24559;SDS011;12727;49.934;8.656;2023-03-23T09:35:08;1.60;;;1.00;;
24559;SDS011;12727;49.934;8.656;2023-03-23T09:37:35;2.72;;;1.00;;
24559;SDS011;12727;49.934;8.656;2023-03-23T09:40:02;2.47;;;1.00;;
24559;SDS011;12727;49.934;8.656;2023-03-23T09:45:10;3.38;;;1.38;;
24559;SDS011;12727;49.934;8.656;2023-03-23T09:50:50;1.73;;;1.00;;
24559;SDS011;12727;49.934;8.656;2023-03-23T09:53:24;2.10;;;1.10;;
24559;SDS011;12727;49.934;8.656;2023-03-23T09:56:00;1.70;;;1.00;;
24559;SDS011;12727;49.934;8.656;2023-03-23T09:58:31;1.00;;;0.70;;
24559;SDS011;12727;49.934;8.656;2023-03-23T10:01:14;1.50;;;0.90;;
24559;SDS011;12727;49.934;8.656;2023-03-23T10:03:48;1.48;;;0.70;;
24559;SDS011;12727;49.934;8.656;2023-03-23T10:06:17;1.48;;;0.88;;
24559;SDS011;12727;49.934;8.656;2023-03-23T10:08:44;2.72;;;0.90;;
24559;SDS011;12727;49.934;8.656;2023-03-23T10:11:31;1.90;;;1.20;;
24559;SDS011;12727;49.934;8.656;2023-03-23T10:14:17;1.63;;;1.02;;
24559;SDS011;12727;49.934;8.656;2023-03-23T10:19:40;2.08;;;0.98;;
24559;SDS011;12727;49.934;8.656;2023-03-23T10:22:11;2.13;;;0.70;;
24559;SDS011;12727;49.934;8.656;2023-03-23T10:24:43;1.38;;;0.77;;
24559;SDS011;12727;49.934;8.656;2023-03-23T10:27:52;2.58;;;0.98;;
24559;SDS011;12727;49.934;8.656;2023-03-23T10:30:38;2.33;;;0.73;;
24559;SDS011;12727;49.934;8.656;2023-03-23T10:33:18;3.22;;;1.23;;
24559;SDS011;12727;49.934;8.656;2023-03-23T10:35:57;1.77;;;1.00;;
24559;SDS011;12727;49.934;8.656;2023-03-23T10:38:36;2.33;;;0.73;;
24559;SDS011;12727;49.934;8.656;2023-03-23T10:41:13;1.30;;;0.50;;
24559;SDS011;12727;49.934;8.656;2023-03-23T10:43:41;1.42;;;0.77;;
24559;SDS011;12727;49.934;8.656;2023-03-23T10:46:15;1.63;;;0.90;;
24559;SDS011;12727;49.934;8.656;2023-03-23T10:48:56;2.53;;;0.80;;
24559;SDS011;12727;49.934;8.656;2023-03-23T10:51:27;2.10;;;0.98;;
24559;SDS011;12727;49.934;8.656;2023-03-23T10:54:02;1.40;;;0.70;;
24559;SDS011;12727;49.934;8.656;2023-03-23T10:59:20;1.90;;;0.60;;
24559;SDS011;12727;49.934;8.656;2023-03-23T11:01:52;1.08;;;0.60;;
24559;SDS011;12727;49.934;8.656;2023-03-23T11:04:19;2.85;;;0.70;;
24559;SDS011;12727;49.934;8.656;2023-03-23T11:06:48;2.60;;;0.80;;
24559;SDS011;12727;49.934;8.656;2023-03-23T11:09:18;1.52;;;0.70;;
24559;SDS011;12727;49.934;8.656;2023-03-23T11:11:52;2.50;;;1.00;;
24559;SDS011;12727;49.934;8.656;2023-03-23T11:14:33;2.53;;;0.77;;
24559;SDS011;12727;49.934;8.656;2023-03-23T11:17:04;2.00;;;0.95;;
24559;SDS011;12727;49.934;8.656;2023-03-23T11:19:44;3.20;;;0.80;;
24559;SDS011;12727;49.934;8.656;2023-03-23T11:22:15;0.77;;;0.52;;
24559;SDS011;12727;49.934;8.656;2023-03-23T11:24:59;5.32;;;0.70;;
24559;SDS011;12727;49.934;8.656;2023-03-23T11:32:26;1.70;;;0.70;;
24559;SDS011;12727;49.934;8.656;2023-03-23T11:34:54;1.08;;;0.68;;
24559;SDS011;12727;49.934;8.656;2023-03-23T11:37:34;1.42;;;0.75;;
24559;SDS011;12727;49.934;8.656;2023-03-23T11:45:31;1.35;;;0.70;;
24559;SDS011;12727;49.934;8.656;2023-03-23T11:48:47;1.30;;;0.70;;
24559;SDS011;12727;49.934;8.656;2023-03-23T11:56:15;1.45;;;0.75;;
24559;SDS011;12727;49.934;8.656;2023-03-23T11:58:53;2.92;;;0.70;;
24559;SDS011;12727;49.934;8.656;2023-03-23T12:07:03;1.25;;;0.60;;
24559;SDS011;12727;49.934;8.656;2023-03-23T12:09:48;1.00;;;0.80;;
24559;SDS011;12727;49.934;8.656;2023-03-23T12:12:36;1.17;;;0.63;;
24559;SDS011;12727;49.934;8.656;2023-03-23T12:15:17;2.65;;;0.93;;
24559;SDS011;12727;49.934;8.656;2023-03-23T12:21:01;1.30;;;0.85;;
24559;SDS011;12727;49.934;8.656;2023-03-23T12:26:14;1.98;;;0.60;;
24559;SDS011;12727;49.934;8.656;2023-03-23T12:34:41;2.58;;;1.02;;
24559;SDS011;12727;49.934;8.656;2023-03-23T12:40:18;1.25;;;0.60;;
24559;SDS011;12727;49.934;8.656;2023-03-23T12:43:06;1.48;;;0.50;;
24559;SDS011;12727;49.934;8.656;2023-03-23T12:48:39;1.95;;;0.60;;
24559;SDS011;12727;49.934;8.656;2023-03-23T12:51:24;0.65;;;0.40;;
24559;SDS011;12727;49.934;8.656;2023-03-23T12:54:38;2.03;;;0.47;;
24559;SDS011;12727;49.934;8.656;2023-03-23T12:57:11;1.48;;;0.60;;
24559;SDS011;12727;49.934;8.656;2023-03-23T13:02:24;1.48;;;0.40;;
24559;SDS011;12727;49.934;8.656;2023-03-23T13:05:26;1.75;;;0.60;;
24559;SDS011;12727;49.934;8.656;2023-03-23T13:10:34;1.33;;;0.77;;
24559;SDS011;12727;49.934;8.656;2023-03-23T13:13:21;1.52;;;0.70;;
24559;SDS011;12727;49.934;8.656;2023-03-23T13:18:44;1.30;;;0.60;;
24559;SDS011;12727;49.934;8.656;2023-03-23T13:21:24;1.73;;;0.75;;
24559;SDS011;12727;49.934;8.656;2023-03-23T13:24:00;2.17;;;0.82;;
24559;SDS011;12727;49.934;8.656;2023-03-23T13:26:29;1.08;;;0.60;;
24559;SDS011;12727;49.934;8.656;2023-03-23T13:28:59;2.20;;;0.70;;
24559;SDS011;12727;49.934;8.656;2023-03-23T13:31:30;0.95;;;0.63;;
24559;SDS011;12727;49.934;8.656;2023-03-23T13:34:01;2.92;;;0.60;;
24559;SDS011;12727;49.934;8.656;2023-03-23T13:36:38;2.20;;;0.50;;
24559;SDS011;12727;49.934;8.656;2023-03-23T13:39:06;0.90;;;0.55;;
24559;SDS011;12727;49.934;8.656;2023-03-23T13:41:46;1.95;;;0.70;;
24559;SDS011;12727;49.934;8.656;2023-03-23T13:46:53;1.23;;;0.57;;
24559;SDS011;12727;49.934;8.656;2023-03-23T13:49:31;1.38;;;0.50;;
24559;SDS011;12727;49.934;8.656;2023-03-23T13:52:05;1.13;;;0.68;;
24559;SDS011;12727;49.934;8.656;2023-03-23T13:54:41;1.65;;;0.50;;
24559;SDS011;12727;49.934;8.656;2023-03-23T14:00:25;1.10;;;0.50;;
24559;SDS011;12727;49.934;8.656;2023-03-23T14:03:01;0.70;;;0.50;;
24559;SDS011;12727;49.934;8.656;2023-03-23T14:05:39;1.05;;;0.50;;
24559;SDS011;12727;49.934;8.656;2023-03-23T14:08:14;0.95;;;0.50;;
24559;SDS011;12727;49.934;8.656;2023-03-23T14:11:09;2.22;;;0.60;;
24559;SDS011;12727;49.934;8.656;2023-03-23T14:16:15;1.48;;;0.50;;
24559;SDS011;12727;49.934;8.656;2023-03-23T14:18:51;0.70;;;0.50;;
24559;SDS011;12727;49.934;8.656;2023-03-23T14:21:33;0.65;;;0.40;;
24559;SDS011;12727;49.934;8.656;2023-03-23T14:24:04;3.47;;;0.50;;
24559;SDS011;12727;49.934;8.656;2023-03-23T14:26:40;1.52;;;0.40;;
24559;SDS011;12727;49.934;8.656;2023-03-23T14:29:09;1.63;;;0.38;;
24559;SDS011;12727;49.934;8.656;2023-03-23T14:31:36;1.15;;;0.50;;
24559;SDS011;12727;49.934;8.656;2023-03-23T14:34:03;0.93;;;0.50;;
24559;SDS011;12727;49.934;8.656;2023-03-23T14:36:34;0.55;;;0.40;;
24559;SDS011;12727;49.934;8.656;2023-03-23T14:41:30;1.00;;;0.40;;
24559;SDS011;12727;49.934;8.656;2023-03-23T14:43:56;1.98;;;0.60;;
24559;SDS011;12727;49.934;8.656;2023-03-23T14:46:24;1.33;;;0.50;;
24559;SDS011;12727;49.934;8.656;2023-03-23T14:48:50;2.03;;;0.50;;
24559;SDS011;12727;49.934;8.656;2023-03-23T14:51:17;0.85;;;0.50;;
24559;SDS011;12727;49.934;8.656;2023-03-23T14:53:44;1.40;;;0.60;;
24559;SDS011;12727;49.934;8.656;2023-03-23T14:56:17;3.05;;;0.60;;
24559;SDS011;12727;49.934;8.656;2023-03-23T14:58:47;3.60;;;0.57;;
24559;SDS011;12727;49.934;8.656;2023-03-23T15:01:18;0.98;;;0.57;;
24559;SDS011;12727;49.934;8.656;2023-03-23T15:03:51;1.33;;;0.50;;
24559;SDS011;12727;49.934;8.656;2023-03-23T15:06:25;1.58;;;0.80;;
24559;SDS011;12727;49.934;8.656;2023-03-23T15:08:54;1.48;;;0.60;;
24559;SDS011;12727;49.934;8.656;2023-03-23T15:11:27;0.70;;;0.45;;
24559;SDS011;12727;49.934;8.656;2023-03-23T15:13:58;1.83;;;0.70;;
24559;SDS011;12727;49.934;8.656;2023-03-23T15:16:32;2.47;;;0.50;;
24559;SDS011;12727;49.934;8.656;2023-03-23T15:19:03;1.90;;;0.70;;
24559;SDS011;12727;49.934;8.656;2023-03-23T15:21:34;0.80;;;0.50;;
24559;SDS011;12727;49.934;8.656;2023-03-23T15:24:19;0.70;;;0.60;;
24559;SDS011;12727;49.934;8.656;2023-03-23T15:29:48;1.58;;;0.70;;
24559;SDS011;12727;49.934;8.656;2023-03-23T15:32:23;1.55;;;0.60;;
24559;SDS011;12727;49.934;8.656;2023-03-23T15:34:54;1.23;;;0.57;;
24559;SDS011;12727;49.934;8.656;2023-03-23T15:38:06;2.13;;;0.80;;
24559;SDS011;12727;49.934;8.656;2023-03-23T15:40:18;1.15;;;0.55;;
24559;SDS011;12727;49.934;8.656;2023-03-23T15:42:46;3.15;;;0.50;;
24559;SDS011;12727;49.934;8.656;2023-03-23T15:52:57;1.85;;;0.75;;
24559;SDS011;12727;49.934;8.656;2023-03-23T15:55:27;1.23;;;0.70;;
24559;SDS011;12727;49.934;8.656;2023-03-23T15:57:55;1.38;;;0.80;;
24559;SDS011;12727;49.934;8.656;2023-03-23T16:00:23;1.25;;;0.60;;
24559;SDS011;12727;49.934;8.656;2023-03-23T16:03:00;1.35;;;0.30;;
24559;SDS011;12727;49.934;8.656;2023-03-23T16:05:29;4.00;;;0.70;;
24559;SDS011;12727;49.934;8.656;2023-03-23T16:07:54;1.55;;;0.45;;
24559;SDS011;12727;49.934;8.656;2023-03-23T16:10:21;0.77;;;0.45;;
24559;SDS011;12727;49.934;8.656;2023-03-23T16:12:50;2.28;;;0.70;;
24559;SDS011;12727;49.934;8.656;2023-03-23T16:15:16;0.90;;;0.40;;
24559;SDS011;12727;49.934;8.656;2023-03-23T16:17:43;2.30;;;0.70;;
24559;SDS011;12727;49.934;8.656;2023-03-23T16:20:17;2.30;;;0.57;;
24559;SDS011;12727;49.934;8.656;2023-03-23T16:22:45;0.93;;;0.60;;
24559;SDS011;12727;49.934;8.656;2023-03-23T16:25:11;1.25;;;0.40;;
24559;SDS011;12727;49.934;8.656;2023-03-23T16:27:38;0.88;;;0.60;;
24559;SDS011;12727;49.934;8.656;2023-03-23T16:30:12;1.48;;;0.60;;
24559;SDS011;12727;49.934;8.656;2023-03-23T16:32:41;0.80;;;0.57;;
24559;SDS011;12727;49.934;8.656;2023-03-23T16:35:07;1.08;;;0.60;;
24559;SDS011;12727;49.934;8.656;2023-03-23T16:37:34;1.70;;;0.70;;
24559;SDS011;12727;49.934;8.656;2023-03-23T16:40:00;0.80;;;0.45;;